Time;durP1;ratioP1;P1;durP2;ratioP2;P2;SDS_P1;SDS_P2;PMS_P1;PMS_P2;Temp;Humidity;BMP_temperature;BMP_pressure;BME280_temperature;BME280_humidity;BME280_pressure;Samples;Min_cycle;Max_cycle;Signal;HPM_P1;HPM_P2
2021/01/21 00:02:22;;;;;;;18.67;11.65;;;;;;;6.72;100.00;101850.66;5095992;28;20483;-73
2021/01/21 00:05:09;;;;;;;24.35;12.15;;;;;;;6.42;100.00;101847.53;5094827;28;20024;-73
2021/01/21 00:07:54;;;;;;;22.15;12.55;;;;;;;6.71;100.00;101853.25;5080182;28;20055;-74
2021/01/21 00:10:40;;;;;;;20.48;12.82;;;;;;;7.06;100.00;101854.63;5094701;28;20444;-74
2021/01/21 00:13:26;;;;;;;19.27;12.45;;;;;;;6.68;100.00;101845.38;5080152;28;20455;-74
2021/01/21 00:16:11;;;;;;;19.52;12.90;;;;;;;6.88;100.00;101854.38;5080887;28;20360;-74
2021/01/21 00:18:57;;;;;;;23.88;14.15;;;;;;;6.90;100.00;101857.88;5094486;28;20028;-74
2021/01/21 00:21:43;;;;;;;23.77;13.57;;;;;;;6.77;100.00;101850.72;5094833;28;20024;-73
2021/01/21 00:24:29;;;;;;;23.05;14.07;;;;;;;6.93;100.00;101850.09;5080031;28;20035;-74
2021/01/21 00:27:14;;;;;;;20.95;13.10;;;;;;;7.00;100.00;101844.13;5080966;28;20038;-73
2021/01/21 00:30:00;;;;;;;22.38;13.68;;;;;;;7.14;100.00;101851.31;5094022;28;20024;-74
2021/01/21 00:32:46;;;;;;;21.38;13.20;;;;;;;7.15;100.00;101850.44;5094449;28;20100;-74
2021/01/21 00:35:32;;;;;;;21.50;12.45;;;;;;;6.93;100.00;101845.78;5080715;28;20028;-74
2021/01/21 00:38:18;;;;;;;22.63;13.45;;;;;;;6.90;100.00;101847.44;5094386;28;20464;-73
2021/01/21 00:41:03;;;;;;;19.77;12.15;;;;;;;6.99;100.00;101847.59;5093720;28;20028;-74
2021/01/21 00:43:49;;;;;;;18.98;11.95;;;;;;;6.86;100.00;101851.75;5080490;28;20024;-74
2021/01/21 00:46:35;;;;;;;21.90;13.15;;;;;;;6.81;100.00;101842.09;5094189;28;20044;-74
2021/01/21 00:49:20;;;;;;;22.95;12.88;;;;;;;6.88;100.00;101841.34;5094007;28;20364;-74
2021/01/21 00:52:06;;;;;;;19.38;12.15;;;;;;;6.87;100.00;101842.22;5094358;28;20019;-74
2021/01/21 00:54:52;;;;;;;21.98;13.25;;;;;;;6.86;100.00;101837.81;5093931;28;20028;-73
2021/01/21 00:57:38;;;;;;;22.27;12.45;;;;;;;6.92;100.00;101836.22;5079396;28;20051;-74
2021/01/21 01:00:23;;;;;;;20.10;11.90;;;;;;;7.05;100.00;101830.34;5094452;28;20039;-74
2021/01/21 01:03:09;;;;;;;18.10;11.23;;;;;;;7.05;100.00;101837.25;5094728;28;20127;-73
2021/01/21 01:05:55;;;;;;;18.00;11.05;;;;;;;7.18;100.00;101828.75;5093877;28;20024;-74
2021/01/21 01:08:41;;;;;;;19.50;11.75;;;;;;;7.16;100.00;101822.66;5094756;28;20020;-75
2021/01/21 01:11:26;;;;;;;16.73;11.25;;;;;;;7.10;100.00;101822.56;5079676;28;20035;-74
2021/01/21 01:14:13;;;;;;;16.65;11.05;;;;;;;7.00;100.00;101815.47;5094054;28;20028;-73
2021/01/21 01:16:59;;;;;;;18.58;11.63;;;;;;;6.95;100.00;101815.41;5093586;28;20523;-74
2021/01/21 01:19:45;;;;;;;22.15;13.73;;;;;;;6.71;100.00;101824.59;5094614;28;20554;-74
2021/01/21 01:22:30;;;;;;;19.23;13.13;;;;;;;6.90;100.00;101821.41;5094108;28;20372;-74
2021/01/21 01:25:17;;;;;;;20.10;13.48;;;;;;;6.85;100.00;101816.13;5094705;28;20042;-73
2021/01/21 01:28:03;;;;;;;20.33;12.80;;;;;;;6.78;100.00;101823.81;5097782;28;20116;-71
2021/01/21 01:30:49;;;;;;;18.02;11.88;;;;;;;6.71;100.00;101822.84;5084286;28;20024;-74
2021/01/21 01:33:34;;;;;;;19.17;12.85;;;;;;;6.70;100.00;101820.22;5094440;28;20348;-73
2021/01/21 01:36:20;;;;;;;22.45;13.05;;;;;;;6.56;100.00;101819.13;5094675;28;20085;-73
2021/01/21 01:39:07;;;;;;;19.20;13.00;;;;;;;6.48;100.00;101816.41;5094691;28;20074;-73
2021/01/21 01:41:52;;;;;;;20.17;12.98;;;;;;;6.40;100.00;101818.03;5093630;28;20100;-73
2021/01/21 01:44:38;;;;;;;19.02;12.00;;;;;;;6.24;100.00;101812.50;5093743;28;20115;-73
2021/01/21 01:47:24;;;;;;;16.98;11.15;;;;;;;6.38;100.00;101803.22;5093440;28;20036;-73
2021/01/21 01:50:10;;;;;;;19.75;12.77;;;;;;;6.43;100.00;101805.03;5096115;28;20028;-74
2021/01/21 01:52:56;;;;;;;19.85;12.82;;;;;;;6.37;100.00;101794.53;5098060;28;20020;-73
2021/01/21 01:55:42;;;;;;;21.73;12.68;;;;;;;6.44;100.00;101801.59;5096561;28;20024;-73
2021/01/21 01:58:30;;;;;;;19.85;12.80;;;;;;;6.48;100.00;101797.31;5097896;28;20066;-73
2021/01/21 02:01:17;;;;;;;20.33;12.32;;;;;;;6.44;100.00;101792.91;5097587;28;20024;-73
2021/01/21 02:04:03;;;;;;;17.08;11.68;;;;;;;6.32;100.00;101797.91;5098947;28;20047;-74
2021/01/21 02:06:49;;;;;;;20.73;13.00;;;;;;;6.38;100.00;101780.66;5097643;28;20363;-73
2021/01/21 02:09:35;;;;;;;21.25;12.98;;;;;;;6.34;100.00;101793.63;5097378;28;20368;-73
2021/01/21 02:12:30;;;;;;;23.05;14.30;;;;;;;6.23;100.00;101792.56;5083563;28;20038;-73
2021/01/21 02:15:56;;;;;;;22.42;13.82;;;;;;;6.22;100.00;101786.47;5084936;28;20356;-73
2021/01/21 02:18:52;;;;;;;22.33;13.43;;;;;;;6.04;100.00;101778.34;5069744;28;20031;-74
2021/01/21 02:22:22;;;;;;;22.52;13.88;;;;;;;6.13;100.00;101773.31;5098377;28;20106;-73
2021/01/21 02:25:24;;;;;;;26.48;15.50;;;;;;;5.94;100.00;101771.22;5096333;28;20117;-73
2021/01/21 02:28:10;;;;;;;24.17;14.55;;;;;;;5.97;100.00;101778.19;5097406;28;20039;-73
2021/01/21 02:30:55;;;;;;;35.45;16.02;;;;;;;6.09;100.00;101771.50;5096150;28;20032;-73
2021/01/21 02:34:03;;;;;;;34.80;15.40;;;;;;;5.88;100.00;101784.13;5083186;28;20106;-73
2021/01/21 02:36:55;;;;;;;27.88;15.45;;;;;;;6.07;100.00;101787.94;5097585;28;20111;-73
2021/01/21 02:39:48;;;;;;;27.08;14.82;;;;;;;6.17;100.00;101780.31;5096653;28;20028;-73
2021/01/21 02:42:48;;;;;;;28.90;15.57;;;;;;;6.15;100.00;101786.34;5096083;28;20035;-73
2021/01/21 02:45:34;;;;;;;26.55;14.38;;;;;;;5.98;100.00;101786.03;5096611;28;20039;-74
2021/01/21 02:48:20;;;;;;;24.55;14.05;;;;;;;6.05;100.00;101784.41;5095957;28;20036;-73
2021/01/21 02:51:23;;;;;;;24.10;14.63;;;;;;;5.97;100.00;101779.09;5082851;28;20064;-73
2021/01/21 02:54:27;;;;;;;28.02;14.77;;;;;;;5.92;100.00;101785.03;5095332;28;20028;-72
2021/01/21 02:57:16;;;;;;;23.60;13.98;;;;;;;5.95;100.00;101785.97;5097119;28;20417;-73
2021/01/21 03:00:10;;;;;;;24.92;14.98;;;;;;;5.82;100.00;101785.75;5096175;28;20020;-73
2021/01/21 03:02:59;;;;;;;28.25;15.48;;;;;;;5.97;100.00;101786.00;5095793;28;20483;-72
2021/01/21 03:05:50;;;;;;;23.85;13.60;;;;;;;5.84;100.00;101789.22;5082317;28;20031;-73
2021/01/21 03:08:36;;;;;;;18.50;12.35;;;;;;;5.95;100.00;101792.91;5095474;28;20112;-73
2021/01/21 03:11:21;;;;;;;18.80;12.35;;;;;;;5.75;100.00;101781.22;5095808;28;20028;-74
2021/01/21 03:14:07;;;;;;;18.92;11.73;;;;;;;5.64;100.00;101787.94;5096029;28;20020;-73
2021/01/21 03:16:55;;;;;;;17.27;11.27;;;;;;;5.86;100.00;101779.75;5095727;28;20028;-74
2021/01/21 03:19:41;;;;;;;17.20;10.35;;;;;;;5.86;100.00;101784.94;5096320;28;20031;-73
2021/01/21 03:22:27;;;;;;;18.05;11.25;;;;;;;5.72;100.00;101779.44;5081673;28;20089;-73
2021/01/21 03:25:13;;;;;;;16.08;10.27;;;;;;;5.86;100.00;101778.00;5095504;28;20350;-74
2021/01/21 03:27:59;;;;;;;15.55;10.15;;;;;;;5.71;100.00;101775.13;5095759;28;20031;-73
2021/01/21 03:30:45;;;;;;;14.15;9.70;;;;;;;5.86;100.00;101778.00;5095257;28;20111;-75
2021/01/21 03:33:30;;;;;;;15.82;10.32;;;;;;;6.02;100.00;101784.38;5096116;28;20085;-74
2021/01/21 03:36:16;;;;;;;15.68;10.48;;;;;;;5.87;100.00;101774.53;5095062;28;20020;-74
2021/01/21 03:39:02;;;;;;;18.52;11.27;;;;;;;5.91;100.00;101780.69;5096263;28;20065;-74
2021/01/21 03:41:52;;;;;;;15.98;10.30;;;;;;;5.99;100.00;101782.56;5081387;28;20102;-73
2021/01/21 03:44:38;;;;;;;17.27;10.52;;;;;;;5.80;100.00;101795.19;5096565;28;20107;-73
2021/01/21 03:47:23;;;;;;;14.88;10.30;;;;;;;5.94;100.00;101789.41;5095130;28;20046;-74
2021/01/21 03:50:10;;;;;;;16.98;10.55;;;;;;;5.56;100.00;101790.41;5096268;28;20456;-74
2021/01/21 03:52:55;;;;;;;16.98;10.73;;;;;;;5.82;100.00;101791.78;5095905;28;20321;-74
2021/01/21 03:55:41;;;;;;;17.35;11.45;;;;;;;5.56;100.00;101787.81;5095513;28;20024;-74
2021/01/21 03:58:27;;;;;;;20.05;11.98;;;;;;;5.80;100.00;101788.28;5095527;28;20042;-74
2021/01/21 04:01:13;;;;;;;23.40;13.00;;;;;;;5.59;100.00;101789.59;5095303;28;20406;-74
2021/01/21 04:03:58;;;;;;;19.33;12.55;;;;;;;5.63;100.00;101789.69;5075533;28;20048;-74
2021/01/21 04:06:44;;;;;;;20.45;11.75;;;;;;;5.61;100.00;101790.47;5074570;28;20360;-74
2021/01/21 04:09:30;;;;;;;18.63;11.45;;;;;;;5.66;100.00;101781.91;5075853;28;20036;-74
2021/01/21 04:12:15;;;;;;;20.10;11.60;;;;;;;5.38;100.00;101782.22;5073730;28;20024;-74
2021/01/21 04:15:01;;;;;;;19.83;11.77;;;;;;;5.59;100.00;101785.28;5075693;28;20028;-74
2021/01/21 04:17:47;;;;;;;18.63;11.25;;;;;;;5.53;100.00;101785.13;5074185;28;20111;-73
2021/01/21 04:20:33;;;;;;;18.65;10.90;;;;;;;5.65;100.00;101794.88;5074632;28;20568;-74
2021/01/21 04:23:19;;;;;;;17.52;11.20;;;;;;;5.60;100.00;101791.31;5074759;28;20525;-73
2021/01/21 04:26:04;;;;;;;18.35;11.32;;;;;;;5.51;100.00;101788.56;5060064;28;20162;-73
2021/01/21 04:28:50;;;;;;;18.88;11.63;;;;;;;5.59;100.00;101786.97;5060494;28;20353;-74
2021/01/21 04:31:36;;;;;;;18.08;10.30;;;;;;;5.68;100.00;101793.25;5074533;28;20342;-74
2021/01/21 04:34:22;;;;;;;17.98;10.35;;;;;;;5.80;100.00;101790.00;5074637;28;20028;-74
2021/01/21 04:37:07;;;;;;;18.23;10.93;;;;;;;5.87;100.00;101790.16;5059919;28;20460;-74
2021/01/21 04:39:53;;;;;;;17.67;11.00;;;;;;;5.73;100.00;101798.50;5074232;28;20040;-72
2021/01/21 04:42:39;;;;;;;17.65;11.52;;;;;;;5.54;100.00;101799.03;5059689;28;20016;-73
2021/01/21 04:45:25;;;;;;;19.38;12.32;;;;;;;5.47;100.00;101794.53;5074613;28;20449;-72
2021/01/21 04:48:12;;;;;;;19.35;12.57;;;;;;;5.08;100.00;101798.06;5073432;28;20036;-73
2021/01/21 04:50:59;;;;;;;18.70;11.90;;;;;;;5.06;100.00;101789.34;5074414;28;20182;-73
2021/01/21 04:53:48;;;;;;;20.52;13.13;;;;;;;5.25;100.00;101795.81;5059567;28;20104;-73
2021/01/21 04:56:39;;;;;;;19.27;11.60;;;;;;;5.56;100.00;101800.81;5074403;28;20056;-73
2021/01/21 04:59:30;;;;;;;18.77;11.95;;;;;;;5.71;100.00;101802.81;5059645;28;20031;-73
2021/01/21 05:02:17;;;;;;;18.52;12.43;;;;;;;5.72;100.00;101797.66;5081739;28;20060;-72
2021/01/21 05:05:03;;;;;;;20.90;12.00;;;;;;;5.41;100.00;101803.09;5093413;28;20036;-73
2021/01/21 05:07:49;;;;;;;18.58;13.18;;;;;;;5.39;100.00;101800.44;5093295;28;20082;-73
2021/01/21 05:10:36;;;;;;;18.92;12.88;;;;;;;5.61;100.00;101798.28;5093353;28;20032;-73
2021/01/21 05:13:21;;;;;;;20.67;11.95;;;;;;;5.68;100.00;101794.94;5094654;28;20046;-73
2021/01/21 05:16:07;;;;;;;21.05;12.88;;;;;;;5.51;100.00;101796.34;5093129;28;20180;-73
2021/01/21 05:18:53;;;;;;;21.30;12.68;;;;;;;5.54;100.00;101799.03;5093221;28;20609;-74
2021/01/21 05:21:39;;;;;;;20.05;12.80;;;;;;;5.50;100.00;101798.06;5093418;28;20417;-73
2021/01/21 05:24:26;;;;;;;20.38;12.68;;;;;;;5.15;100.00;101802.53;5092400;28;20485;-73
2021/01/21 05:27:16;;;;;;;19.75;12.48;;;;;;;5.55;100.00;101795.56;5093331;28;20115;-73
2021/01/21 05:30:03;;;;;;;18.70;11.52;;;;;;;5.52;100.00;101798.97;5079006;28;20062;-73
2021/01/21 05:32:50;;;;;;;15.73;10.93;;;;;;;5.43;100.00;101805.72;5080509;28;20031;-73
2021/01/21 05:35:35;;;;;;;16.73;10.60;;;;;;;5.64;100.00;101800.94;5094717;28;20024;-73
2021/01/21 05:38:21;;;;;;;17.85;10.90;;;;;;;5.61;100.00;101799.16;5092866;28;20028;-73
2021/01/21 05:41:09;;;;;;;16.13;10.85;;;;;;;5.91;100.00;101798.91;5092849;28;20031;-74
2021/01/21 05:43:54;;;;;;;16.50;10.95;;;;;;;5.81;100.00;101799.56;5094403;28;20035;-73
2021/01/21 05:46:40;;;;;;;16.88;11.27;;;;;;;5.68;100.00;101803.63;5079430;28;20122;-73
2021/01/21 05:49:27;;;;;;;18.30;12.10;;;;;;;5.67;100.00;101806.22;5078383;28;20032;-73
2021/01/21 05:52:12;;;;;;;22.80;14.60;;;;;;;5.93;100.00;101812.78;5092664;28;20058;-74
2021/01/21 05:54:59;;;;;;;27.08;16.15;;;;;;;5.91;100.00;101810.16;5092316;28;20028;-73
2021/01/21 05:57:45;;;;;;;27.52;17.92;;;;;;;5.91;100.00;101811.91;5093245;28;20422;-72
2021/01/21 06:00:32;;;;;;;27.00;17.33;;;;;;;6.06;100.00;101809.59;5092490;28;20411;-73
2021/01/21 06:03:18;;;;;;;30.98;18.98;;;;;;;5.59;100.00;101807.78;5092245;28;20059;-74
2021/01/21 06:06:07;;;;;;;32.50;18.65;;;;;;;5.71;100.00;101810.63;5092533;28;20032;-73
2021/01/21 06:08:53;;;;;;;31.00;17.05;;;;;;;5.95;100.00;101816.31;5093778;28;20027;-73
2021/01/21 06:11:40;;;;;;;28.15;17.45;;;;;;;5.90;100.00;101815.38;5078292;28;20039;-74
2021/01/21 06:14:27;;;;;;;28.33;17.77;;;;;;;5.90;100.00;101818.81;5092580;28;20518;-75
2021/01/21 06:17:13;;;;;;;29.67;16.98;;;;;;;5.93;100.00;101825.81;5093818;28;20177;-73
2021/01/21 06:19:59;;;;;;;27.75;17.50;;;;;;;5.96;100.00;101825.88;5078732;28;20081;-74
2021/01/21 06:22:46;;;;;;;34.53;18.50;;;;;;;5.73;100.00;101821.91;5092515;28;20440;-73
2021/01/21 06:25:34;;;;;;;36.50;22.98;;;;;;;6.11;100.00;101823.56;5093825;28;20401;-74
2021/01/21 06:28:20;;;;;;;39.03;22.20;;;;;;;6.18;100.00;101823.69;5093418;28;20028;-74
2021/01/21 06:31:08;;;;;;;32.33;19.17;;;;;;;6.07;100.00;101817.41;5077291;28;20034;-73
2021/01/21 06:33:55;;;;;;;29.05;19.60;;;;;;;6.05;100.00;101815.63;5093169;28;20032;-73
2021/01/21 06:36:44;;;;;;;33.15;19.92;;;;;;;5.95;100.00;101819.78;5096773;28;20103;-74
2021/01/21 06:39:46;;;;;;;33.72;20.23;;;;;;;5.79;100.00;101822.03;5097517;28;20024;-74
2021/01/21 06:42:41;;;;;;;37.35;19.00;;;;;;;6.03;100.00;101823.41;5081938;28;20020;-73
2021/01/21 06:45:31;;;;;;;29.02;16.98;;;;;;;6.16;100.00;101816.69;5097280;28;20024;-72
2021/01/21 06:48:17;;;;;;;26.27;14.75;;;;;;;5.94;100.00;101822.38;5096439;28;20028;-74
2021/01/21 06:51:08;;;;;;;25.05;14.85;;;;;;;6.33;100.00;101813.56;5096214;28;20415;-74
2021/01/21 06:53:55;;;;;;;20.80;13.38;;;;;;;6.14;100.00;101821.03;5095179;28;20359;-74
2021/01/21 06:56:41;;;;;;;27.88;14.05;;;;;;;6.58;100.00;101820.03;5095840;28;20020;-74
2021/01/21 06:59:52;;;;;;;17.20;10.50;;;;;;;6.47;100.00;101811.19;5080944;28;20020;-74
2021/01/21 07:02:50;;;;;;;15.63;9.95;;;;;;;6.61;100.00;101814.88;5097185;28;20040;-72
2021/01/21 07:05:55;;;;;;;16.42;9.98;;;;;;;6.66;100.00;101814.09;5096517;28;20020;-74
2021/01/21 07:09:04;;;;;;;21.30;10.70;;;;;;;6.81;100.00;101813.44;5082345;28;20020;-74
2021/01/21 07:11:53;;;;;;;18.15;10.07;;;;;;;6.71;100.00;101816.78;5095600;28;20043;-73
2021/01/21 07:14:40;;;;;;;17.38;10.43;;;;;;;7.12;100.00;101819.13;5097797;28;20169;-73
2021/01/21 07:17:27;;;;;;;27.73;15.52;;;;;;;7.26;100.00;101828.00;5096365;28;20028;-74
2021/01/21 07:20:13;;;;;;;23.55;13.77;;;;;;;7.69;100.00;101821.59;5081530;28;20414;-74
2021/01/21 07:23:07;;;;;;;20.17;10.85;;;;;;;7.78;100.00;101825.22;5095628;28;20032;-74
2021/01/21 07:26:29;;;;;;;17.17;11.00;;;;;;;7.63;100.00;101825.00;5081397;28;20106;-74
2021/01/21 07:29:19;;;;;;;16.15;10.10;;;;;;;7.78;100.00;101827.81;5096240;28;20028;-74
2021/01/21 07:32:05;;;;;;;17.25;10.70;;;;;;;7.83;100.00;101831.34;5081248;28;20085;-73
2021/01/21 07:34:51;;;;;;;17.80;10.48;;;;;;;7.48;100.00;101834.41;5094783;28;20106;-73
2021/01/21 07:37:47;;;;;;;13.63;8.68;;;;;;;7.65;100.00;101832.88;5095276;28;20028;-74
2021/01/21 07:40:42;;;;;;;15.00;9.23;;;;;;;7.79;100.00;101836.50;5095208;28;20478;-74
2021/01/21 07:43:55;;;;;;;13.50;9.20;;;;;;;7.76;100.00;101841.69;5081667;28;20028;-73
2021/01/21 07:46:41;;;;;;;13.98;9.25;;;;;;;7.94;100.00;101844.50;5079568;28;20502;-75
2021/01/21 07:49:27;;;;;;;18.83;10.88;;;;;;;8.01;100.00;101835.88;5080570;28;20374;-73
2021/01/21 07:52:13;;;;;;;15.63;9.95;;;;;;;8.18;100.00;101839.53;5095725;28;20039;-73
2021/01/21 07:54:59;;;;;;;14.23;9.80;;;;;;;8.48;100.00;101824.22;5081224;28;20028;-73
2021/01/21 07:57:45;;;;;;;14.35;9.35;;;;;;;8.02;100.00;101833.31;5095855;28;20100;-74
2021/01/21 08:00:33;;;;;;;13.57;9.48;;;;;;;8.40;100.00;101829.34;5080022;28;20103;-73
2021/01/21 08:03:42;;;;;;;13.73;9.20;;;;;;;8.26;100.00;101833.59;5094707;28;20460;-73
2021/01/21 08:06:28;;;;;;;15.10;10.15;;;;;;;8.38;100.00;101835.41;5094877;28;20042;-73
2021/01/21 08:09:14;;;;;;;14.48;9.70;;;;;;;9.21;100.00;101831.72;5094613;28;20024;-74
2021/01/21 08:11:59;;;;;;;14.63;9.75;;;;;;;9.11;100.00;101832.50;5094555;28;20024;-73
2021/01/21 08:14:45;;;;;;;14.82;10.20;;;;;;;9.28;100.00;101833.47;5095906;28;20036;-73
2021/01/21 08:17:31;;;;;;;17.83;10.85;;;;;;;9.25;100.00;101834.31;5093979;28;20444;-73
2021/01/21 08:20:18;;;;;;;17.90;11.13;;;;;;;9.13;100.00;101836.88;5093792;28;20020;-74
2021/01/21 08:23:05;;;;;;;17.40;10.75;;;;;;;9.42;100.00;101843.16;5095629;28;20039;-73
2021/01/21 08:25:55;;;;;;;15.60;10.55;;;;;;;10.13;100.00;101833.00;5093680;28;20024;-73
2021/01/21 08:28:44;;;;;;;16.25;11.23;;;;;;;9.85;100.00;101839.84;5095342;28;20043;-74
2021/01/21 08:31:40;;;;;;;16.58;11.07;;;;;;;9.98;100.00;101836.38;5093729;28;20032;-75
2021/01/21 08:34:26;;;;;;;18.35;12.07;;;;;;;11.09;100.00;101837.34;5080393;28;20028;-74
2021/01/21 08:37:12;;;;;;;21.58;13.95;;;;;;;11.89;96.22;101833.59;5094077;28;20020;-74
2021/01/21 08:39:59;;;;;;;22.48;15.63;;;;;;;12.02;93.23;101834.41;5094208;28;20330;-74
2021/01/21 08:42:47;;;;;;;25.55;17.05;;;;;;;12.30;90.92;101828.97;5093775;28;20039;-74
2021/01/21 08:45:33;;;;;;;26.60;17.55;;;;;;;12.17;89.42;101826.47;5095424;28;20023;-72
2021/01/21 08:48:32;;;;;;;27.75;18.35;;;;;;;11.89;91.13;101824.88;5093729;28;20035;-73
2021/01/21 08:51:26;;;;;;;29.75;18.42;;;;;;;12.55;89.17;101827.03;5080505;28;20458;-74
2021/01/21 08:54:20;;;;;;;33.00;19.48;;;;;;;11.65;92.56;101831.09;5079991;28;20042;-74
2021/01/21 08:57:07;;;;;;;25.35;16.05;;;;;;;11.06;98.40;101825.13;5094721;28;20024;-75
2021/01/21 09:00:11;;;;;;;25.88;14.20;;;;;;;10.55;100.00;101819.03;5094197;28;20063;-74
2021/01/21 09:02:58;;;;;;;21.65;13.38;;;;;;;10.43;100.00;101813.78;5079628;28;20056;-74
2021/01/21 09:05:56;;;;;;;21.58;13.95;;;;;;;11.37;99.02;101818.91;5093139;28;20131;-73
2021/01/21 09:08:59;;;;;;;20.30;12.82;;;;;;;11.95;92.80;101811.69;5095045;28;20031;-74
2021/01/21 09:11:45;;;;;;;21.15;14.50;;;;;;;12.20;90.98;101814.16;5079539;28;20103;-73
2021/01/21 09:14:31;;;;;;;25.25;16.17;;;;;;;12.42;90.43;101810.47;5093220;28;20055;-74
2021/01/21 09:17:17;;;;;;;23.75;13.70;;;;;;;11.62;97.51;101812.72;5093067;28;20097;-73
2021/01/21 09:20:17;;;;;;;21.77;13.38;;;;;;;12.50;90.77;101810.44;5094045;28;20020;-74
2021/01/21 09:23:22;;;;;;;18.05;11.48;;;;;;;11.74;92.97;101811.81;5093019;28;20039;-73
2021/01/21 09:26:15;;;;;;;20.10;11.43;;;;;;;12.43;90.67;101811.38;5093283;28;20384;-74
2021/01/21 09:29:01;;;;;;;21.05;11.07;;;;;;;12.23;90.92;101806.25;5079951;28;20047;-73
2021/01/21 09:31:47;;;;;;;20.17;12.23;;;;;;;11.96;91.10;101806.44;5093070;28;20027;-73
2021/01/21 09:34:33;;;;;;;18.92;11.85;;;;;;;11.65;95.04;101806.59;5092921;28;20031;-73
2021/01/21 09:37:19;;;;;;;17.88;11.93;;;;;;;11.74;95.32;101807.41;5078942;28;20024;-73
2021/01/21 09:40:07;;;;;;;18.65;12.65;;;;;;;11.75;96.35;101801.31;5094055;28;20020;-74
2021/01/21 09:42:58;;;;;;;22.73;13.80;;;;;;;11.67;96.35;101799.59;5094332;28;20089;-73
2021/01/21 09:45:44;;;;;;;23.95;15.00;;;;;;;11.81;96.31;101803.88;5093241;28;20030;-74
2021/01/21 09:48:30;;;;;;;31.02;16.98;;;;;;;11.60;99.43;101801.38;5093330;28;20032;-73
2021/01/21 09:51:15;;;;;;;30.15;16.30;;;;;;;11.68;98.56;101794.31;5092825;28;20032;-74
2021/01/21 09:54:02;;;;;;;29.67;15.80;;;;;;;11.49;99.19;101795.25;5092246;28;20024;-73
2021/01/21 09:56:48;;;;;;;23.25;14.45;;;;;;;11.67;97.85;101783.84;5079278;28;20028;-74
2021/01/21 09:59:34;;;;;;;21.23;13.10;;;;;;;11.22;100.00;101786.63;5078337;28;20020;-73
2021/01/21 10:02:21;;;;;;;23.40;14.35;;;;;;;10.75;100.00;101781.47;5094895;28;20380;-73
2021/01/21 10:05:07;;;;;;;19.15;11.65;;;;;;;11.44;100.00;101780.41;5080284;28;20021;-73
2021/01/21 10:07:53;;;;;;;17.77;11.60;;;;;;;11.77;99.19;101785.53;5092943;28;20070;-74
2021/01/21 10:10:39;;;;;;;20.65;12.10;;;;;;;10.81;100.00;101772.72;5081045;28;20452;-74
2021/01/21 10:13:24;;;;;;;15.52;10.35;;;;;;;10.49;100.00;101766.66;5096037;28;20043;-74
2021/01/21 10:16:10;;;;;;;19.95;11.32;;;;;;;10.88;100.00;101756.13;5096895;28;20028;-74
2021/01/21 10:18:59;;;;;;;19.30;11.80;;;;;;;11.33;100.00;101764.69;5096429;28;20024;-74
2021/01/21 10:21:45;;;;;;;17.17;11.55;;;;;;;11.74;100.00;101754.91;5096551;28;20058;-73
2021/01/21 10:24:31;;;;;;;18.13;11.90;;;;;;;11.66;100.00;101755.84;5096450;28;20051;-73
2021/01/21 10:27:16;;;;;;;19.13;12.60;;;;;;;11.99;100.00;101755.63;5096646;28;20463;-74
2021/01/21 10:30:04;;;;;;;16.58;11.00;;;;;;;12.22;99.42;101751.94;5082345;28;20023;-73
2021/01/21 10:32:50;;;;;;;15.93;10.43;;;;;;;11.81;100.00;101761.03;5097752;28;20020;-74
2021/01/21 10:35:36;;;;;;;16.33;9.40;;;;;;;11.76;100.00;101753.16;5082379;28;20089;-73
2021/01/21 10:38:22;;;;;;;20.20;10.30;;;;;;;12.29;99.71;101745.78;5096030;28;20039;-74
2021/01/21 10:41:08;;;;;;;18.77;11.50;;;;;;;12.21;100.00;101742.31;5081597;28;20024;-74
2021/01/21 10:43:54;;;;;;;17.77;11.63;;;;;;;12.55;100.00;101735.03;5096828;28;20024;-74
2021/01/21 10:46:53;;;;;;;18.67;11.25;;;;;;;12.53;100.00;101731.53;5096213;28;20032;-74
2021/01/21 10:49:38;;;;;;;17.02;10.70;;;;;;;12.38;100.00;101721.19;5096109;28;20056;-74
2021/01/21 10:52:24;;;;;;;18.10;10.98;;;;;;;12.77;99.04;101716.41;5095982;28;20024;-74
2021/01/21 10:55:11;;;;;;;15.77;11.52;;;;;;;11.28;100.00;101715.75;5096081;28;20028;-74
2021/01/21 10:57:56;;;;;;;16.20;10.82;;;;;;;11.54;100.00;101712.09;5097530;28;20039;-74
2021/01/21 11:00:44;;;;;;;16.67;10.90;;;;;;;12.52;100.00;101716.66;5095243;28;20016;-73
2021/01/21 11:03:30;;;;;;;19.13;12.50;;;;;;;12.23;100.00;101703.78;5097656;28;20127;-73
2021/01/21 11:06:16;;;;;;;24.10;12.25;;;;;;;12.49;100.00;101699.16;5095160;28;20426;-73
2021/01/21 11:09:02;;;;;;;18.98;11.45;;;;;;;13.07;100.00;101699.44;5095884;28;20121;-73
2021/01/21 11:11:51;;;;;;;18.00;11.10;;;;;;;13.13;99.48;101696.72;5081128;28;20032;-74
2021/01/21 11:14:37;;;;;;;20.70;13.55;;;;;;;13.44;97.99;101683.16;5096071;28;20039;-73
2021/01/21 11:18:16;;;;;;;22.20;12.68;;;;;;;12.27;100.00;101684.50;5096398;28;20036;-74
2021/01/21 11:21:02;;;;;;;22.58;13.70;;;;;;;13.79;97.30;101678.22;5096956;28;20081;-74
2021/01/21 11:23:54;;;;;;;15.85;10.05;;;;;;;13.41;97.57;101672.66;5096205;28;20046;-74
2021/01/21 11:26:40;;;;;;;16.48;10.15;;;;;;;13.78;96.68;101679.13;5081317;28;20030;-74
2021/01/21 11:29:25;;;;;;;14.00;8.77;;;;;;;14.05;93.36;101670.81;5094938;28;20063;-75
2021/01/21 11:32:11;;;;;;;10.52;7.55;;;;;;;13.77;94.08;101672.13;5094715;28;20115;-73
2021/01/21 11:34:57;;;;;;;11.63;7.05;;;;;;;13.59;93.96;101669.75;5095565;28;20419;-74
2021/01/21 11:37:43;;;;;;;8.35;6.05;;;;;;;14.10;91.49;101666.31;5095484;28;20059;-74
2021/01/21 11:40:29;;;;;;;7.15;5.53;;;;;;;13.77;92.24;101660.72;5081296;28;20036;-74
2021/01/21 11:43:15;;;;;;;10.13;5.88;;;;;;;13.90;88.52;101662.25;5095636;28;20034;-75
2021/01/21 11:46:06;;;;;;;9.75;6.32;;;;;;;13.78;89.79;101659.81;5095528;28;20101;-74
2021/01/21 11:48:52;;;;;;;12.07;6.93;;;;;;;14.37;87.96;101655.34;5081523;28;20046;-74
2021/01/21 11:51:38;;;;;;;14.35;7.10;;;;;;;13.91;90.29;101649.06;5096199;28;20024;-75
2021/01/21 11:54:27;;;;;;;15.20;7.35;;;;;;;13.81;91.25;101647.47;5095478;28;20016;-73
2021/01/21 11:57:12;;;;;;;10.63;6.80;;;;;;;14.18;90.61;101643.34;5083291;28;20491;-73
2021/01/21 11:59:59;;;;;;;9.02;6.60;;;;;;;14.02;91.25;101640.97;5080771;28;20028;-74
2021/01/21 12:02:48;;;;;;;8.13;5.90;;;;;;;13.51;95.37;101629.50;5095265;28;20056;-74
2021/01/21 12:05:34;;;;;;;9.02;6.88;;;;;;;13.58;94.06;101625.88;5095535;28;20494;-75
2021/01/21 12:08:20;;;;;;;10.52;6.10;;;;;;;13.82;91.57;101622.88;5096049;28;20028;-73
2021/01/21 12:11:05;;;;;;;8.32;5.93;;;;;;;13.80;88.62;101629.94;5094254;28;20114;-73
2021/01/21 12:13:51;;;;;;;7.90;6.10;;;;;;;13.80;89.61;101624.69;5094374;28;20026;-74
2021/01/21 12:16:37;;;;;;;10.52;6.10;;;;;;;14.09;86.99;101632.06;5095747;28;20031;-74
2021/01/21 12:19:23;;;;;;;9.65;7.13;;;;;;;13.66;93.11;101625.75;5080727;28;20089;-75
2021/01/21 12:22:08;;;;;;;12.05;8.98;;;;;;;13.23;98.71;101628.16;5095466;28;20140;-74
2021/01/21 12:24:54;;;;;;;13.00;8.50;;;;;;;13.47;98.57;101635.69;5093576;28;20028;-74
2021/01/21 12:27:40;;;;;;;13.90;8.88;;;;;;;13.39;97.93;101636.72;5096077;28;20028;-73
2021/01/21 12:30:29;;;;;;;13.45;9.02;;;;;;;13.42;96.50;101636.69;5093437;28;20356;-74
2021/01/21 12:33:14;;;;;;;13.40;9.27;;;;;;;13.26;96.01;101630.75;5093952;28;20131;-75
2021/01/21 12:36:01;;;;;;;12.80;9.52;;;;;;;13.36;97.02;101632.38;5079020;28;20080;-73
2021/01/21 12:38:50;;;;;;;13.57;9.32;;;;;;;12.97;100.00;101634.63;5079975;28;20092;-74
2021/01/21 12:41:35;;;;;;;18.25;10.52;;;;;;;12.58;100.00;101638.59;5094181;28;20020;-74
2021/01/21 12:44:21;;;;;;;13.45;10.85;;;;;;;12.74;100.00;101628.78;5079859;28;20419;-73
2021/01/21 12:47:08;;;;;;;17.50;12.05;;;;;;;12.53;100.00;101643.03;5092900;28;20039;-74